sensor_id;sensor_type;location;lat;lon;timestamp;P1;durP1;ratioP1;P2;durP2;ratioP2
29732;SDS011;16643;43.158;25.302;2022-08-19T00:00:50;15.20;;;11.90;;
29732;SDS011;16643;43.158;25.302;2022-08-19T00:03:16;15.40;;;11.27;;
29732;SDS011;16643;43.158;25.302;2022-08-19T00:05:41;12.88;;;11.57;;
29732;SDS011;16643;43.158;25.302;2022-08-19T00:08:07;15.20;;;11.48;;
29732;SDS011;16643;43.158;25.302;2022-08-19T00:10:33;15.25;;;11.70;;
29732;SDS011;16643;43.158;25.302;2022-08-19T00:12:59;14.13;;;12.10;;
29732;SDS011;16643;43.158;25.302;2022-08-19T00:15:24;16.48;;;11.82;;
29732;SDS011;16643;43.158;25.302;2022-08-19T00:17:50;12.73;;;11.40;;
29732;SDS011;16643;43.158;25.302;2022-08-19T00:20:18;20.42;;;13.02;;
29732;SDS011;16643;43.158;25.302;2022-08-19T00:22:45;13.75;;;11.88;;
29732;SDS011;16643;43.158;25.302;2022-08-19T00:25:12;13.57;;;11.87;;
29732;SDS011;16643;43.158;25.302;2022-08-19T00:27:38;13.75;;;11.73;;
29732;SDS011;16643;43.158;25.302;2022-08-19T00:30:05;14.98;;;11.70;;
29732;SDS011;16643;43.158;25.302;2022-08-19T00:34:59;15.03;;;12.13;;
29732;SDS011;16643;43.158;25.302;2022-08-19T00:37:25;18.98;;;12.02;;
29732;SDS011;16643;43.158;25.302;2022-08-19T00:39:52;14.77;;;11.52;;
29732;SDS011;16643;43.158;25.302;2022-08-19T00:42:18;14.68;;;12.63;;
29732;SDS011;16643;43.158;25.302;2022-08-19T00:47:12;15.00;;;11.95;;
29732;SDS011;16643;43.158;25.302;2022-08-19T00:49:40;14.32;;;12.02;;
29732;SDS011;16643;43.158;25.302;2022-08-19T00:52:17;16.58;;;12.70;;
29732;SDS011;16643;43.158;25.302;2022-08-19T00:54:47;16.48;;;11.32;;
29732;SDS011;16643;43.158;25.302;2022-08-19T00:57:15;13.23;;;11.68;;
29732;SDS011;16643;43.158;25.302;2022-08-19T00:59:44;17.50;;;11.93;;
29732;SDS011;16643;43.158;25.302;2022-08-19T01:02:13;13.63;;;11.73;;
29732;SDS011;16643;43.158;25.302;2022-08-19T01:04:40;15.88;;;11.65;;
29732;SDS011;16643;43.158;25.302;2022-08-19T01:07:05;13.55;;;12.00;;
29732;SDS011;16643;43.158;25.302;2022-08-19T01:09:32;15.38;;;12.10;;
29732;SDS011;16643;43.158;25.302;2022-08-19T01:11:58;14.82;;;11.88;;
29732;SDS011;16643;43.158;25.302;2022-08-19T01:14:24;16.20;;;11.75;;
29732;SDS011;16643;43.158;25.302;2022-08-19T01:16:50;14.13;;;12.25;;
29732;SDS011;16643;43.158;25.302;2022-08-19T01:21:50;12.77;;;11.02;;
29732;SDS011;16643;43.158;25.302;2022-08-19T01:24:19;16.65;;;12.30;;
29732;SDS011;16643;43.158;25.302;2022-08-19T01:26:46;14.93;;;12.25;;
29732;SDS011;16643;43.158;25.302;2022-08-19T01:29:13;18.00;;;12.45;;
29732;SDS011;16643;43.158;25.302;2022-08-19T01:31:39;19.33;;;13.93;;
29732;SDS011;16643;43.158;25.302;2022-08-19T01:34:05;16.20;;;11.38;;
29732;SDS011;16643;43.158;25.302;2022-08-19T01:36:38;14.50;;;11.95;;
29732;SDS011;16643;43.158;25.302;2022-08-19T01:39:09;15.55;;;12.73;;
29732;SDS011;16643;43.158;25.302;2022-08-19T01:41:37;21.88;;;13.20;;
29732;SDS011;16643;43.158;25.302;2022-08-19T01:44:03;15.18;;;12.63;;
29732;SDS011;16643;43.158;25.302;2022-08-19T01:46:30;16.83;;;12.50;;
29732;SDS011;16643;43.158;25.302;2022-08-19T01:48:57;16.80;;;12.68;;
29732;SDS011;16643;43.158;25.302;2022-08-19T01:51:23;16.67;;;12.57;;
29732;SDS011;16643;43.158;25.302;2022-08-19T01:53:50;15.07;;;11.57;;
29732;SDS011;16643;43.158;25.302;2022-08-19T01:56:17;14.20;;;11.93;;
29732;SDS011;16643;43.158;25.302;2022-08-19T01:58:44;15.65;;;11.90;;
29732;SDS011;16643;43.158;25.302;2022-08-19T02:01:15;13.43;;;12.02;;
29732;SDS011;16643;43.158;25.302;2022-08-19T02:03:42;15.35;;;11.70;;
29732;SDS011;16643;43.158;25.302;2022-08-19T02:06:07;15.73;;;12.77;;
29732;SDS011;16643;43.158;25.302;2022-08-19T02:08:36;13.48;;;12.07;;
29732;SDS011;16643;43.158;25.302;2022-08-19T02:11:03;14.05;;;12.05;;
29732;SDS011;16643;43.158;25.302;2022-08-19T02:13:30;14.13;;;12.10;;
29732;SDS011;16643;43.158;25.302;2022-08-19T02:15:56;14.95;;;12.60;;
29732;SDS011;16643;43.158;25.302;2022-08-19T02:18:22;17.63;;;12.30;;
29732;SDS011;16643;43.158;25.302;2022-08-19T02:20:48;15.18;;;12.68;;
29732;SDS011;16643;43.158;25.302;2022-08-19T02:23:14;15.98;;;12.10;;
29732;SDS011;16643;43.158;25.302;2022-08-19T02:25:42;13.32;;;11.45;;
29732;SDS011;16643;43.158;25.302;2022-08-19T02:28:10;17.17;;;12.50;;
29732;SDS011;16643;43.158;25.302;2022-08-19T02:30:37;13.45;;;12.07;;
29732;SDS011;16643;43.158;25.302;2022-08-19T02:33:03;14.93;;;11.97;;
29732;SDS011;16643;43.158;25.302;2022-08-19T02:35:30;14.90;;;12.02;;
29732;SDS011;16643;43.158;25.302;2022-08-19T02:37:56;14.77;;;12.45;;
29732;SDS011;16643;43.158;25.302;2022-08-19T02:40:40;15.93;;;13.13;;
29732;SDS011;16643;43.158;25.302;2022-08-19T02:43:15;14.85;;;12.13;;
29732;SDS011;16643;43.158;25.302;2022-08-19T02:45:41;15.10;;;12.85;;
29732;SDS011;16643;43.158;25.302;2022-08-19T02:48:07;17.50;;;13.98;;
29732;SDS011;16643;43.158;25.302;2022-08-19T02:50:36;14.17;;;12.57;;
29732;SDS011;16643;43.158;25.302;2022-08-19T02:53:03;15.10;;;12.90;;
29732;SDS011;16643;43.158;25.302;2022-08-19T02:55:29;16.67;;;13.20;;
29732;SDS011;16643;43.158;25.302;2022-08-19T02:57:55;15.27;;;13.43;;
29732;SDS011;16643;43.158;25.302;2022-08-19T03:00:22;14.47;;;12.87;;
29732;SDS011;16643;43.158;25.302;2022-08-19T03:02:49;15.20;;;12.48;;
29732;SDS011;16643;43.158;25.302;2022-08-19T03:05:15;15.18;;;11.82;;
29732;SDS011;16643;43.158;25.302;2022-08-19T03:07:40;13.80;;;12.23;;
29732;SDS011;16643;43.158;25.302;2022-08-19T03:10:06;16.17;;;12.60;;
29732;SDS011;16643;43.158;25.302;2022-08-19T03:12:34;13.45;;;12.05;;
29732;SDS011;16643;43.158;25.302;2022-08-19T03:15:02;17.65;;;12.57;;
29732;SDS011;16643;43.158;25.302;2022-08-19T03:17:28;14.82;;;12.05;;
29732;SDS011;16643;43.158;25.302;2022-08-19T03:19:53;19.13;;;13.23;;
29732;SDS011;16643;43.158;25.302;2022-08-19T03:22:19;16.23;;;12.85;;
29732;SDS011;16643;43.158;25.302;2022-08-19T03:24:44;14.30;;;12.27;;
29732;SDS011;16643;43.158;25.302;2022-08-19T03:27:10;13.07;;;11.55;;
29732;SDS011;16643;43.158;25.302;2022-08-19T03:29:36;16.77;;;12.75;;
29732;SDS011;16643;43.158;25.302;2022-08-19T03:32:04;17.45;;;11.75;;
29732;SDS011;16643;43.158;25.302;2022-08-19T03:34:32;15.90;;;12.63;;
29732;SDS011;16643;43.158;25.302;2022-08-19T03:36:59;13.80;;;11.65;;
29732;SDS011;16643;43.158;25.302;2022-08-19T03:39:32;14.35;;;12.52;;
29732;SDS011;16643;43.158;25.302;2022-08-19T03:41:58;15.23;;;13.32;;
29732;SDS011;16643;43.158;25.302;2022-08-19T03:44:27;14.70;;;12.20;;
29732;SDS011;16643;43.158;25.302;2022-08-19T03:46:56;14.85;;;11.50;;
29732;SDS011;16643;43.158;25.302;2022-08-19T03:49:24;15.45;;;12.32;;
29732;SDS011;16643;43.158;25.302;2022-08-19T03:51:52;15.25;;;12.65;;
29732;SDS011;16643;43.158;25.302;2022-08-19T03:54:20;14.93;;;12.52;;
29732;SDS011;16643;43.158;25.302;2022-08-19T03:56:48;16.05;;;11.88;;
29732;SDS011;16643;43.158;25.302;2022-08-19T03:59:17;14.55;;;11.85;;
29732;SDS011;16643;43.158;25.302;2022-08-19T04:01:45;14.07;;;12.00;;
29732;SDS011;16643;43.158;25.302;2022-08-19T04:04:11;15.30;;;12.18;;
29732;SDS011;16643;43.158;25.302;2022-08-19T04:06:37;15.10;;;11.75;;
29732;SDS011;16643;43.158;25.302;2022-08-19T04:09:05;12.70;;;11.40;;
29732;SDS011;16643;43.158;25.302;2022-08-19T04:11:35;16.63;;;12.50;;
29732;SDS011;16643;43.158;25.302;2022-08-19T04:14:07;19.67;;;12.45;;
29732;SDS011;16643;43.158;25.302;2022-08-19T04:16:34;14.20;;;12.68;;
29732;SDS011;16643;43.158;25.302;2022-08-19T04:19:01;16.88;;;12.48;;
29732;SDS011;16643;43.158;25.302;2022-08-19T04:21:28;19.90;;;12.52;;
29732;SDS011;16643;43.158;25.302;2022-08-19T04:23:55;16.50;;;13.02;;
29732;SDS011;16643;43.158;25.302;2022-08-19T04:26:23;14.03;;;12.50;;
29732;SDS011;16643;43.158;25.302;2022-08-19T04:28:51;15.43;;;12.40;;
29732;SDS011;16643;43.158;25.302;2022-08-19T04:31:19;15.25;;;13.15;;
29732;SDS011;16643;43.158;25.302;2022-08-19T04:33:46;20.42;;;12.35;;
29732;SDS011;16643;43.158;25.302;2022-08-19T04:36:20;17.42;;;12.55;;
29732;SDS011;16643;43.158;25.302;2022-08-19T04:38:47;13.85;;;12.27;;
29732;SDS011;16643;43.158;25.302;2022-08-19T04:41:14;17.08;;;13.43;;
29732;SDS011;16643;43.158;25.302;2022-08-19T04:43:59;17.80;;;13.75;;
29732;SDS011;16643;43.158;25.302;2022-08-19T04:46:24;19.52;;;14.07;;
29732;SDS011;16643;43.158;25.302;2022-08-19T04:48:50;18.40;;;12.93;;
29732;SDS011;16643;43.158;25.302;2022-08-19T04:51:16;15.30;;;12.50;;
29732;SDS011;16643;43.158;25.302;2022-08-19T04:53:42;14.35;;;11.90;;
29732;SDS011;16643;43.158;25.302;2022-08-19T04:56:09;14.30;;;12.55;;
29732;SDS011;16643;43.158;25.302;2022-08-19T04:58:37;15.32;;;12.18;;
29732;SDS011;16643;43.158;25.302;2022-08-19T05:01:04;15.98;;;12.52;;
29732;SDS011;16643;43.158;25.302;2022-08-19T05:03:30;14.95;;;12.45;;
29732;SDS011;16643;43.158;25.302;2022-08-19T05:05:59;14.30;;;11.75;;
29732;SDS011;16643;43.158;25.302;2022-08-19T05:08:32;13.68;;;11.57;;
29732;SDS011;16643;43.158;25.302;2022-08-19T05:10:58;17.70;;;12.55;;
29732;SDS011;16643;43.158;25.302;2022-08-19T05:13:24;14.63;;;12.52;;
29732;SDS011;16643;43.158;25.302;2022-08-19T05:15:58;12.93;;;10.88;;
29732;SDS011;16643;43.158;25.302;2022-08-19T05:18:24;18.25;;;11.95;;
29732;SDS011;16643;43.158;25.302;2022-08-19T05:21:10;17.45;;;11.95;;
29732;SDS011;16643;43.158;25.302;2022-08-19T05:23:57;16.13;;;11.98;;
29732;SDS011;16643;43.158;25.302;2022-08-19T05:26:25;14.38;;;11.95;;
29732;SDS011;16643;43.158;25.302;2022-08-19T05:28:52;16.70;;;11.90;;
29732;SDS011;16643;43.158;25.302;2022-08-19T05:31:19;16.10;;;11.82;;
29732;SDS011;16643;43.158;25.302;2022-08-19T05:33:44;18.83;;;12.75;;
29732;SDS011;16643;43.158;25.302;2022-08-19T05:36:10;14.30;;;12.18;;
29732;SDS011;16643;43.158;25.302;2022-08-19T05:38:36;12.35;;;10.98;;
29732;SDS011;16643;43.158;25.302;2022-08-19T05:41:09;13.38;;;11.35;;
29732;SDS011;16643;43.158;25.302;2022-08-19T05:43:35;15.27;;;13.57;;
29732;SDS011;16643;43.158;25.302;2022-08-19T05:46:02;14.27;;;11.70;;
29732;SDS011;16643;43.158;25.302;2022-08-19T05:48:32;13.48;;;11.55;;
29732;SDS011;16643;43.158;25.302;2022-08-19T05:51:03;12.95;;;10.85;;
29732;SDS011;16643;43.158;25.302;2022-08-19T05:53:35;14.82;;;10.77;;
29732;SDS011;16643;43.158;25.302;2022-08-19T05:56:07;12.00;;;10.63;;
29732;SDS011;16643;43.158;25.302;2022-08-19T05:58:35;15.50;;;10.90;;
29732;SDS011;16643;43.158;25.302;2022-08-19T06:01:01;11.48;;;9.35;;
29732;SDS011;16643;43.158;25.302;2022-08-19T06:03:33;11.25;;;10.05;;
29732;SDS011;16643;43.158;25.302;2022-08-19T06:05:59;11.88;;;10.48;;
29732;SDS011;16643;43.158;25.302;2022-08-19T06:08:25;12.05;;;9.65;;
29732;SDS011;16643;43.158;25.302;2022-08-19T06:10:52;11.68;;;9.45;;
29732;SDS011;16643;43.158;25.302;2022-08-19T06:13:18;11.38;;;10.07;;
29732;SDS011;16643;43.158;25.302;2022-08-19T06:15:45;11.00;;;9.27;;
29732;SDS011;16643;43.158;25.302;2022-08-19T06:18:12;14.77;;;9.75;;
29732;SDS011;16643;43.158;25.302;2022-08-19T06:23:05;13.27;;;9.15;;
29732;SDS011;16643;43.158;25.302;2022-08-19T06:25:30;13.90;;;9.25;;
29732;SDS011;16643;43.158;25.302;2022-08-19T06:27:56;10.77;;;9.68;;
29732;SDS011;16643;43.158;25.302;2022-08-19T06:30:22;14.45;;;9.43;;
29732;SDS011;16643;43.158;25.302;2022-08-19T06:32:48;11.55;;;8.48;;
29732;SDS011;16643;43.158;25.302;2022-08-19T06:35:15;10.48;;;9.07;;
29732;SDS011;16643;43.158;25.302;2022-08-19T06:37:40;15.93;;;9.73;;
29732;SDS011;16643;43.158;25.302;2022-08-19T06:40:08;15.00;;;11.07;;
29732;SDS011;16643;43.158;25.302;2022-08-19T06:42:36;12.40;;;9.27;;
29732;SDS011;16643;43.158;25.302;2022-08-19T06:45:03;12.73;;;9.48;;
29732;SDS011;16643;43.158;25.302;2022-08-19T06:47:29;16.67;;;9.85;;
29732;SDS011;16643;43.158;25.302;2022-08-19T06:49:57;11.70;;;8.38;;
29732;SDS011;16643;43.158;25.302;2022-08-19T06:52:29;14.70;;;10.13;;
29732;SDS011;16643;43.158;25.302;2022-08-19T06:54:56;15.05;;;9.00;;
29732;SDS011;16643;43.158;25.302;2022-08-19T06:57:23;12.02;;;8.85;;
29732;SDS011;16643;43.158;25.302;2022-08-19T06:59:49;12.35;;;8.68;;
29732;SDS011;16643;43.158;25.302;2022-08-19T07:02:15;9.95;;;8.43;;
29732;SDS011;16643;43.158;25.302;2022-08-19T07:04:41;10.23;;;7.90;;
29732;SDS011;16643;43.158;25.302;2022-08-19T07:07:08;13.80;;;7.60;;
29732;SDS011;16643;43.158;25.302;2022-08-19T07:09:38;7.65;;;6.85;;
29732;SDS011;16643;43.158;25.302;2022-08-19T07:12:06;12.60;;;7.78;;
29732;SDS011;16643;43.158;25.302;2022-08-19T07:14:33;8.48;;;7.13;;
29732;SDS011;16643;43.158;25.302;2022-08-19T07:17:03;15.50;;;8.40;;
29732;SDS011;16643;43.158;25.302;2022-08-19T07:19:34;9.15;;;7.68;;
29732;SDS011;16643;43.158;25.302;2022-08-19T07:22:01;10.85;;;8.25;;
29732;SDS011;16643;43.158;25.302;2022-08-19T07:24:28;8.93;;;7.38;;
29732;SDS011;16643;43.158;25.302;2022-08-19T07:26:56;11.98;;;7.85;;
29732;SDS011;16643;43.158;25.302;2022-08-19T07:29:27;11.35;;;7.28;;
29732;SDS011;16643;43.158;25.302;2022-08-19T07:31:54;7.45;;;6.75;;
29732;SDS011;16643;43.158;25.302;2022-08-19T07:34:24;8.30;;;7.47;;
29732;SDS011;16643;43.158;25.302;2022-08-19T07:36:50;11.57;;;7.93;;
29732;SDS011;16643;43.158;25.302;2022-08-19T07:39:18;11.60;;;8.45;;
29732;SDS011;16643;43.158;25.302;2022-08-19T07:41:46;10.85;;;7.57;;
29732;SDS011;16643;43.158;25.302;2022-08-19T07:44:12;9.02;;;7.57;;
29732;SDS011;16643;43.158;25.302;2022-08-19T07:46:39;11.23;;;7.85;;
29732;SDS011;16643;43.158;25.302;2022-08-19T07:49:07;8.95;;;7.10;;
29732;SDS011;16643;43.158;25.302;2022-08-19T07:51:34;9.07;;;7.00;;
29732;SDS011;16643;43.158;25.302;2022-08-19T07:54:00;7.55;;;6.72;;
29732;SDS011;16643;43.158;25.302;2022-08-19T07:56:26;11.63;;;6.55;;
29732;SDS011;16643;43.158;25.302;2022-08-19T07:58:52;9.73;;;6.82;;
29732;SDS011;16643;43.158;25.302;2022-08-19T08:01:19;9.52;;;7.28;;
29732;SDS011;16643;43.158;25.302;2022-08-19T08:03:47;7.00;;;6.30;;
29732;SDS011;16643;43.158;25.302;2022-08-19T08:06:32;7.38;;;6.50;;
29732;SDS011;16643;43.158;25.302;2022-08-19T08:09:18;8.32;;;6.47;;
29732;SDS011;16643;43.158;25.302;2022-08-19T08:11:52;9.60;;;6.60;;
29732;SDS011;16643;43.158;25.302;2022-08-19T08:14:30;9.90;;;7.00;;
29732;SDS011;16643;43.158;25.302;2022-08-19T08:17:02;11.15;;;6.55;;
29732;SDS011;16643;43.158;25.302;2022-08-19T08:19:29;8.73;;;7.10;;
29732;SDS011;16643;43.158;25.302;2022-08-19T08:21:56;12.75;;;7.30;;
29732;SDS011;16643;43.158;25.302;2022-08-19T08:24:24;9.07;;;7.38;;
29732;SDS011;16643;43.158;25.302;2022-08-19T08:26:55;9.98;;;7.97;;
29732;SDS011;16643;43.158;25.302;2022-08-19T08:29:24;9.20;;;7.25;;
29732;SDS011;16643;43.158;25.302;2022-08-19T08:31:50;13.10;;;7.28;;
29732;SDS011;16643;43.158;25.302;2022-08-19T08:34:16;7.93;;;7.13;;
29732;SDS011;16643;43.158;25.302;2022-08-19T08:36:43;8.82;;;7.10;;
29732;SDS011;16643;43.158;25.302;2022-08-19T08:39:14;12.88;;;7.43;;
29732;SDS011;16643;43.158;25.302;2022-08-19T08:47:02;7.72;;;6.78;;
29732;SDS011;16643;43.158;25.302;2022-08-19T08:49:43;7.97;;;7.18;;
29732;SDS011;16643;43.158;25.302;2022-08-19T08:52:15;11.13;;;7.57;;
29732;SDS011;16643;43.158;25.302;2022-08-19T08:54:48;8.77;;;7.15;;
29732;SDS011;16643;43.158;25.302;2022-08-19T08:57:37;8.43;;;7.30;;
29732;SDS011;16643;43.158;25.302;2022-08-19T09:00:09;9.15;;;7.82;;
29732;SDS011;16643;43.158;25.302;2022-08-19T09:02:40;12.73;;;8.55;;
29732;SDS011;16643;43.158;25.302;2022-08-19T09:05:05;9.48;;;7.20;;
29732;SDS011;16643;43.158;25.302;2022-08-19T09:10:07;8.77;;;7.88;;
29732;SDS011;16643;43.158;25.302;2022-08-19T09:12:49;11.23;;;7.80;;
29732;SDS011;16643;43.158;25.302;2022-08-19T09:15:29;8.73;;;7.80;;
29732;SDS011;16643;43.158;25.302;2022-08-19T09:18:01;8.55;;;7.60;;
29732;SDS011;16643;43.158;25.302;2022-08-19T09:20:27;9.10;;;7.38;;
29732;SDS011;16643;43.158;25.302;2022-08-19T09:22:53;8.07;;;7.28;;
29732;SDS011;16643;43.158;25.302;2022-08-19T09:25:19;8.00;;;7.20;;
29732;SDS011;16643;43.158;25.302;2022-08-19T09:27:49;9.07;;;7.70;;
29732;SDS011;16643;43.158;25.302;2022-08-19T09:30:23;9.68;;;7.53;;
29732;SDS011;16643;43.158;25.302;2022-08-19T09:32:50;10.25;;;8.35;;
29732;SDS011;16643;43.158;25.302;2022-08-19T09:35:23;10.52;;;7.90;;
29732;SDS011;16643;43.158;25.302;2022-08-19T09:37:50;10.30;;;7.90;;
29732;SDS011;16643;43.158;25.302;2022-08-19T09:40:17;10.77;;;8.33;;
29732;SDS011;16643;43.158;25.302;2022-08-19T09:42:43;8.73;;;7.80;;
29732;SDS011;16643;43.158;25.302;2022-08-19T09:45:12;9.45;;;8.07;;
29732;SDS011;16643;43.158;25.302;2022-08-19T09:47:42;8.55;;;7.57;;
29732;SDS011;16643;43.158;25.302;2022-08-19T09:50:09;9.52;;;8.50;;
29732;SDS011;16643;43.158;25.302;2022-08-19T09:52:37;10.60;;;7.25;;
29732;SDS011;16643;43.158;25.302;2022-08-19T09:55:04;10.13;;;7.90;;
29732;SDS011;16643;43.158;25.302;2022-08-19T09:57:34;8.25;;;7.32;;
29732;SDS011;16643;43.158;25.302;2022-08-19T10:00:00;9.20;;;7.82;;
29732;SDS011;16643;43.158;25.302;2022-08-19T10:02:26;9.90;;;7.20;;
29732;SDS011;16643;43.158;25.302;2022-08-19T10:04:51;15.70;;;7.43;;
29732;SDS011;16643;43.158;25.302;2022-08-19T10:07:36;9.32;;;7.93;;
29732;SDS011;16643;43.158;25.302;2022-08-19T10:10:05;11.87;;;7.70;;
29732;SDS011;16643;43.158;25.302;2022-08-19T10:12:32;8.38;;;7.53;;
29732;SDS011;16643;43.158;25.302;2022-08-19T10:14:59;11.40;;;7.88;;
29732;SDS011;16643;43.158;25.302;2022-08-19T10:17:25;14.88;;;8.50;;
29732;SDS011;16643;43.158;25.302;2022-08-19T10:19:51;12.02;;;8.68;;
29732;SDS011;16643;43.158;25.302;2022-08-19T10:22:17;13.75;;;8.25;;
29732;SDS011;16643;43.158;25.302;2022-08-19T10:24:44;10.02;;;8.45;;
29732;SDS011;16643;43.158;25.302;2022-08-19T10:27:11;8.93;;;8.02;;
29732;SDS011;16643;43.158;25.302;2022-08-19T10:32:04;10.23;;;7.70;;
29732;SDS011;16643;43.158;25.302;2022-08-19T10:34:32;9.55;;;7.28;;
29732;SDS011;16643;43.158;25.302;2022-08-19T10:36:59;9.15;;;7.43;;
29732;SDS011;16643;43.158;25.302;2022-08-19T10:39:29;9.73;;;7.38;;
29732;SDS011;16643;43.158;25.302;2022-08-19T10:41:55;9.43;;;8.40;;
29732;SDS011;16643;43.158;25.302;2022-08-19T10:44:21;12.40;;;8.10;;
29732;SDS011;16643;43.158;25.302;2022-08-19T10:49:14;9.23;;;6.87;;
29732;SDS011;16643;43.158;25.302;2022-08-19T10:51:40;9.13;;;7.45;;
29732;SDS011;16643;43.158;25.302;2022-08-19T10:54:25;9.30;;;7.63;;
29732;SDS011;16643;43.158;25.302;2022-08-19T10:57:14;10.38;;;7.90;;
29732;SDS011;16643;43.158;25.302;2022-08-19T11:02:07;10.90;;;7.80;;
29732;SDS011;16643;43.158;25.302;2022-08-19T11:04:35;8.48;;;7.68;;
29732;SDS011;16643;43.158;25.302;2022-08-19T11:07:02;8.38;;;7.55;;
29732;SDS011;16643;43.158;25.302;2022-08-19T11:09:29;9.07;;;7.97;;
29732;SDS011;16643;43.158;25.302;2022-08-19T11:11:55;11.13;;;8.50;;
29732;SDS011;16643;43.158;25.302;2022-08-19T11:14:21;9.77;;;8.35;;
29732;SDS011;16643;43.158;25.302;2022-08-19T11:16:49;8.45;;;7.65;;
29732;SDS011;16643;43.158;25.302;2022-08-19T11:19:16;10.68;;;7.03;;
29732;SDS011;16643;43.158;25.302;2022-08-19T11:21:45;8.75;;;7.85;;
29732;SDS011;16643;43.158;25.302;2022-08-19T11:24:16;8.80;;;6.95;;
29732;SDS011;16643;43.158;25.302;2022-08-19T11:26:45;13.85;;;7.88;;
29732;SDS011;16643;43.158;25.302;2022-08-19T11:29:14;12.77;;;9.63;;
29732;SDS011;16643;43.158;25.302;2022-08-19T11:31:42;10.85;;;8.50;;
29732;SDS011;16643;43.158;25.302;2022-08-19T11:34:10;11.15;;;7.50;;
29732;SDS011;16643;43.158;25.302;2022-08-19T11:36:39;7.93;;;6.45;;
29732;SDS011;16643;43.158;25.302;2022-08-19T11:39:07;7.88;;;6.97;;
29732;SDS011;16643;43.158;25.302;2022-08-19T11:41:34;8.68;;;7.53;;
29732;SDS011;16643;43.158;25.302;2022-08-19T11:44:00;8.80;;;7.37;;
29732;SDS011;16643;43.158;25.302;2022-08-19T11:46:28;7.05;;;6.00;;
29732;SDS011;16643;43.158;25.302;2022-08-19T11:48:55;7.53;;;6.72;;
29732;SDS011;16643;43.158;25.302;2022-08-19T11:53:49;8.10;;;6.68;;
29732;SDS011;16643;43.158;25.302;2022-08-19T11:56:16;8.80;;;6.43;;
29732;SDS011;16643;43.158;25.302;2022-08-19T11:58:42;11.38;;;7.80;;
29732;SDS011;16643;43.158;25.302;2022-08-19T12:01:09;10.35;;;7.03;;
29732;SDS011;16643;43.158;25.302;2022-08-19T12:03:40;10.25;;;6.82;;
29732;SDS011;16643;43.158;25.302;2022-08-19T12:06:07;9.10;;;7.07;;
29732;SDS011;16643;43.158;25.302;2022-08-19T12:08:37;12.32;;;7.45;;
29732;SDS011;16643;43.158;25.302;2022-08-19T12:11:03;9.82;;;6.60;;
29732;SDS011;16643;43.158;25.302;2022-08-19T12:13:29;9.88;;;6.95;;
29732;SDS011;16643;43.158;25.302;2022-08-19T12:15:55;9.20;;;6.95;;
29732;SDS011;16643;43.158;25.302;2022-08-19T12:18:21;8.38;;;6.45;;
29732;SDS011;16643;43.158;25.302;2022-08-19T12:20:49;8.70;;;7.05;;
29732;SDS011;16643;43.158;25.302;2022-08-19T12:23:16;13.27;;;7.07;;
29732;SDS011;16643;43.158;25.302;2022-08-19T12:25:45;7.35;;;6.65;;
29732;SDS011;16643;43.158;25.302;2022-08-19T12:28:15;9.43;;;7.22;;
29732;SDS011;16643;43.158;25.302;2022-08-19T12:30:41;11.43;;;6.82;;
29732;SDS011;16643;43.158;25.302;2022-08-19T12:33:08;7.80;;;6.80;;
29732;SDS011;16643;43.158;25.302;2022-08-19T12:35:33;8.38;;;6.47;;
29732;SDS011;16643;43.158;25.302;2022-08-19T12:37:59;8.02;;;6.03;;
29732;SDS011;16643;43.158;25.302;2022-08-19T12:40:26;9.88;;;6.72;;
29732;SDS011;16643;43.158;25.302;2022-08-19T12:42:53;8.20;;;6.37;;
29732;SDS011;16643;43.158;25.302;2022-08-19T12:45:19;7.25;;;6.45;;
29732;SDS011;16643;43.158;25.302;2022-08-19T12:47:44;9.52;;;6.70;;
29732;SDS011;16643;43.158;25.302;2022-08-19T12:50:11;11.13;;;7.03;;
29732;SDS011;16643;43.158;25.302;2022-08-19T12:52:37;17.63;;;7.38;;
29732;SDS011;16643;43.158;25.302;2022-08-19T12:55:03;13.07;;;6.80;;
29732;SDS011;16643;43.158;25.302;2022-08-19T12:57:31;10.30;;;6.28;;
29732;SDS011;16643;43.158;25.302;2022-08-19T13:00:11;13.48;;;6.30;;
29732;SDS011;16643;43.158;25.302;2022-08-19T13:02:42;9.93;;;6.65;;
29732;SDS011;16643;43.158;25.302;2022-08-19T13:05:12;11.02;;;6.10;;
29732;SDS011;16643;43.158;25.302;2022-08-19T13:07:41;6.45;;;5.85;;
29732;SDS011;16643;43.158;25.302;2022-08-19T13:10:09;10.15;;;7.38;;
29732;SDS011;16643;43.158;25.302;2022-08-19T13:12:37;7.88;;;5.80;;
29732;SDS011;16643;43.158;25.302;2022-08-19T13:15:03;7.95;;;6.32;;
29732;SDS011;16643;43.158;25.302;2022-08-19T13:17:30;8.93;;;5.95;;
29732;SDS011;16643;43.158;25.302;2022-08-19T13:19:55;9.30;;;6.13;;
29732;SDS011;16643;43.158;25.302;2022-08-19T13:22:21;10.60;;;6.30;;
29732;SDS011;16643;43.158;25.302;2022-08-19T13:24:47;7.43;;;5.85;;
29732;SDS011;16643;43.158;25.302;2022-08-19T13:27:14;9.60;;;7.13;;
29732;SDS011;16643;43.158;25.302;2022-08-19T13:29:41;8.32;;;6.15;;
29732;SDS011;16643;43.158;25.302;2022-08-19T13:32:25;10.05;;;5.90;;
29732;SDS011;16643;43.158;25.302;2022-08-19T13:35:09;7.88;;;6.32;;
29732;SDS011;16643;43.158;25.302;2022-08-19T13:37:35;6.82;;;6.15;;
29732;SDS011;16643;43.158;25.302;2022-08-19T13:40:07;8.45;;;6.20;;
29732;SDS011;16643;43.158;25.302;2022-08-19T13:42:43;10.25;;;6.22;;
29732;SDS011;16643;43.158;25.302;2022-08-19T13:45:13;8.27;;;6.70;;
29732;SDS011;16643;43.158;25.302;2022-08-19T13:47:40;10.10;;;6.68;;
29732;SDS011;16643;43.158;25.302;2022-08-19T13:50:10;7.50;;;6.22;;
29732;SDS011;16643;43.158;25.302;2022-08-19T13:52:37;9.52;;;6.45;;
29732;SDS011;16643;43.158;25.302;2022-08-19T13:55:04;6.72;;;6.13;;
29732;SDS011;16643;43.158;25.302;2022-08-19T13:57:31;8.63;;;6.32;;
29732;SDS011;16643;43.158;25.302;2022-08-19T13:59:58;10.43;;;6.63;;
29732;SDS011;16643;43.158;25.302;2022-08-19T14:02:24;7.70;;;6.27;;
29732;SDS011;16643;43.158;25.302;2022-08-19T14:04:51;7.97;;;6.25;;
29732;SDS011;16643;43.158;25.302;2022-08-19T14:07:17;7.97;;;6.53;;
29732;SDS011;16643;43.158;25.302;2022-08-19T14:09:43;7.32;;;6.63;;
29732;SDS011;16643;43.158;25.302;2022-08-19T14:12:09;8.60;;;6.03;;
29732;SDS011;16643;43.158;25.302;2022-08-19T14:14:38;7.55;;;6.13;;
29732;SDS011;16643;43.158;25.302;2022-08-19T14:17:07;11.80;;;6.07;;
29732;SDS011;16643;43.158;25.302;2022-08-19T14:19:34;7.82;;;6.18;;
29732;SDS011;16643;43.158;25.302;2022-08-19T14:22:01;8.80;;;6.18;;
29732;SDS011;16643;43.158;25.302;2022-08-19T14:24:27;12.82;;;6.70;;
29732;SDS011;16643;43.158;25.302;2022-08-19T14:26:53;8.27;;;5.95;;
29732;SDS011;16643;43.158;25.302;2022-08-19T14:29:19;9.90;;;6.45;;
29732;SDS011;16643;43.158;25.302;2022-08-19T14:31:45;6.93;;;6.22;;
29732;SDS011;16643;43.158;25.302;2022-08-19T14:34:10;8.77;;;6.10;;
29732;SDS011;16643;43.158;25.302;2022-08-19T14:36:37;7.15;;;6.13;;
29732;SDS011;16643;43.158;25.302;2022-08-19T14:39:03;9.55;;;6.47;;
29732;SDS011;16643;43.158;25.302;2022-08-19T14:41:29;7.40;;;6.07;;
29732;SDS011;16643;43.158;25.302;2022-08-19T14:43:56;6.32;;;5.35;;
29732;SDS011;16643;43.158;25.302;2022-08-19T14:46:23;6.20;;;5.65;;
29732;SDS011;16643;43.158;25.302;2022-08-19T14:48:50;7.53;;;5.60;;
29732;SDS011;16643;43.158;25.302;2022-08-19T14:51:17;8.52;;;5.43;;
29732;SDS011;16643;43.158;25.302;2022-08-19T14:53:43;6.32;;;5.72;;